Wakaw, Canada
Current Conditions -  °F | °C
As of 5:00 AM on Friday 24 Oct 2014 (Local Time) from CYPA Reporting Station
Broken Clouds Broken Clouds  
Wind Chill: 39°   Ceiling: 25000
Heat Index: 39°   Visibility: 15mi
Dew Point: 36°   Wind: 3mph
Humidity: 87%   Direction: 260°W
Pressure: 29.52"   Gusts: NA
Location:  52.65°N, 105.73°W
Report Text: CYPA 241100Z 26003KT 15SM SCT094 SCT140 BKN250 04/02 A2952 RMK AC3AC1CI2 SLP011
Loading
Personal Weather Stations






























Interactive Weather Map
Tropical Storm Tracking
New forecast layout! Learn more

10-Day Weather Forecast

Advertisements
Track Severe Weather on mobile